createdAt,value
2022-08-18T00:00:40.652Z,17.3
2022-08-18T00:01:45.057Z,15.7
2022-08-18T00:02:51.016Z,15.2
2022-08-18T00:03:56.707Z,22
2022-08-18T00:04:55.372Z,18.8
2022-08-18T00:05:54.812Z,18.9
2022-08-18T00:06:55.326Z,17.2
2022-08-18T00:07:55.843Z,17.2
2022-08-18T00:08:57.262Z,17.7
2022-08-18T00:09:57.392Z,16.3
2022-08-18T00:10:57.187Z,18.4
2022-08-18T00:11:57.603Z,13.4
2022-08-18T00:13:01.206Z,17.3
2022-08-18T00:13:58.961Z,15.8
2022-08-18T00:14:59.992Z,21.2
2022-08-18T00:15:59.991Z,20.3
2022-08-18T00:17:00.411Z,14.1
2022-08-18T00:18:00.931Z,17.9
2022-08-18T00:19:03.688Z,17.1
2022-08-18T00:20:08.002Z,19.7
2022-08-18T00:21:05.974Z,15.8
2022-08-18T00:22:06.683Z,17.4
2022-08-18T00:23:06.583Z,16.5
2022-08-18T00:24:06.897Z,17.2
2022-08-18T00:25:09.790Z,20.3
2022-08-18T00:26:07.751Z,11.8
2022-08-18T00:27:08.261Z,14.7
2022-08-18T00:28:08.781Z,18.7
2022-08-18T00:29:09.287Z,15
2022-08-18T00:30:14.004Z,13.4
2022-08-18T00:31:11.658Z,14.1
2022-08-18T00:32:14.136Z,18.6
2022-08-18T00:33:12.391Z,13.7
2022-08-18T00:34:12.803Z,14.5
2022-08-18T00:35:21.621Z,12.7
2022-08-18T00:37:14.672Z,17.7
2022-08-18T00:38:23.272Z,16.4
2022-08-18T00:39:17.544Z,20
2022-08-18T00:40:26.004Z,15.2
2022-08-18T00:41:18.692Z,17.5
2022-08-18T00:42:29.833Z,13.5
2022-08-18T00:44:24.031Z,12.9
2022-08-18T00:47:41.827Z,21.3
2022-08-18T00:48:30.723Z,16.4
2022-08-18T00:49:31.340Z,12.3
2022-08-18T00:51:45.374Z,16.9
2022-08-18T00:52:38.831Z,17.6
2022-08-18T00:53:47.850Z,15.6
2022-08-18T00:54:41.612Z,13.6
2022-08-18T00:55:49.293Z,14.1
2022-08-18T00:56:48.490Z,13.5
2022-08-18T00:57:48.810Z,14.3
2022-08-18T01:00:01.201Z,15.8
2022-08-18T01:00:51.692Z,14.5
2022-08-18T01:01:54.770Z,13.8
2022-08-18T01:02:56.711Z,17.7
2022-08-18T01:04:00.503Z,16.2
2022-08-18T01:05:07.691Z,12.5
2022-08-18T01:08:04.430Z,17.4
2022-08-18T01:09:05.221Z,13.3
2022-08-18T01:10:06.177Z,12.3
2022-08-18T01:11:05.773Z,17.8
2022-08-18T01:12:43.896Z,14.6
2022-08-18T01:13:09.073Z,18.8
2022-08-18T01:14:11.842Z,15.4
2022-08-18T01:15:27.474Z,14.8
2022-08-18T01:16:12.230Z,13.7
2022-08-18T01:17:12.980Z,16.3
2022-08-18T01:18:15.043Z,15.4
2022-08-18T01:19:13.717Z,11.6
2022-08-18T01:23:26.241Z,12.5
2022-08-18T01:25:28.496Z,16.1
2022-08-18T01:26:29.940Z,13.4
2022-08-18T01:27:31.280Z,14.4
2022-08-18T01:28:34.160Z,15.8
2022-08-18T01:29:38.114Z,13.2
2022-08-18T01:31:54.401Z,20.9
2022-08-18T01:32:39.301Z,25.8
2022-08-18T01:33:42.230Z,17.8
2022-08-18T01:34:39.833Z,23.6
2022-08-18T01:35:43.202Z,18
2022-08-18T01:36:43.221Z,15.1
2022-08-18T01:37:41.591Z,19
2022-08-18T01:38:41.899Z,20.6
2022-08-18T01:41:23.422Z,14.4
2022-08-18T01:41:24.064Z,14
2022-08-18T01:41:47.816Z,14.3
2022-08-18T01:42:48.271Z,13.5
2022-08-18T01:43:49.912Z,14.9
2022-08-18T01:44:49.609Z,14.3
2022-08-18T01:45:49.618Z,17.3
2022-08-18T01:46:50.142Z,13.6
2022-08-18T01:47:50.715Z,14.5
2022-08-18T01:48:52.001Z,12.6
2022-08-18T01:49:51.501Z,11.4
2022-08-18T01:50:51.799Z,16.1
2022-08-18T01:51:52.531Z,13.7
2022-08-18T01:52:53.614Z,15.5
2022-08-18T01:53:53.163Z,20.7
2022-08-18T01:54:54.561Z,15.7
2022-08-18T01:55:55.011Z,17.3
2022-08-18T01:56:55.230Z,13.6
2022-08-18T01:57:56.153Z,14
2022-08-18T01:58:56.507Z,15
2022-08-18T01:59:56.466Z,16.6
2022-08-18T02:00:58.540Z,25
2022-08-18T02:01:57.458Z,17.9
2022-08-18T02:03:01.911Z,23.1
2022-08-18T02:04:23.288Z,21.6
2022-08-18T02:06:10.031Z,20.5
2022-08-18T02:07:10.141Z,13.2
2022-08-18T02:08:08.002Z,22.8
2022-08-18T02:09:08.006Z,15.9
2022-08-18T02:10:12.255Z,14.9
2022-08-18T02:11:09.969Z,14.7
2022-08-18T02:12:10.800Z,16.1
2022-08-18T02:13:11.010Z,14.4
2022-08-18T02:14:11.212Z,11.5
2022-08-18T02:15:12.650Z,14.5
2022-08-18T02:16:12.160Z,9.6
2022-08-18T02:17:13.629Z,18.4
2022-08-18T02:18:41.389Z,16.9
2022-08-18T02:19:15.849Z,12.8
2022-08-18T02:20:19.026Z,12
2022-08-18T02:21:20.271Z,14.9
2022-08-18T02:22:19.658Z,10.5
2022-08-18T02:23:18.032Z,12.2
2022-08-18T02:24:19.569Z,12.6
2022-08-18T02:25:20.303Z,15.1
2022-08-18T02:26:20.205Z,14.2
2022-08-18T02:27:20.514Z,13
2022-08-18T02:28:20.931Z,16.9
2022-08-18T02:29:21.450Z,12
2022-08-18T02:30:22.281Z,11.5
2022-08-18T02:31:24.423Z,11.8
2022-08-18T02:32:22.800Z,13.6
2022-08-18T02:33:23.421Z,13.6
2022-08-18T02:34:24.458Z,15.3
2022-08-18T02:35:24.111Z,17
2022-08-18T02:36:25.409Z,12.1
2022-08-18T02:37:25.300Z,16.9
2022-08-18T02:38:25.400Z,16.7
2022-08-18T02:39:26.111Z,15.3
2022-08-18T02:40:26.742Z,18.3
2022-08-18T02:41:29.263Z,21.2
2022-08-18T02:42:28.696Z,18.9
2022-08-18T02:43:28.501Z,20.5
2022-08-18T02:44:28.301Z,18.3
2022-08-18T02:45:28.929Z,20.7
2022-08-18T02:46:29.926Z,15.5
2022-08-18T02:47:33.507Z,22.2
2022-08-18T02:48:32.840Z,30.5
2022-08-18T02:49:32.430Z,61
2022-08-18T02:50:32.951Z,43.4
2022-08-18T02:51:33.566Z,37
2022-08-18T02:52:35.632Z,38.7
2022-08-18T02:53:34.300Z,30.4
2022-08-18T02:54:34.520Z,31.3
2022-08-18T02:55:35.641Z,28.5
2022-08-18T02:56:41.308Z,36.9
2022-08-18T02:57:44.708Z,20.8
2022-08-18T02:58:42.221Z,30.1
2022-08-18T02:59:42.640Z,28.2
2022-08-18T03:00:44.900Z,21.6
2022-08-18T03:01:48.193Z,30.2
2022-08-18T03:02:50.129Z,34.9
2022-08-18T03:03:48.390Z,25.2
2022-08-18T03:04:49.022Z,27.5
2022-08-18T03:05:48.318Z,25.3
2022-08-18T03:06:49.226Z,27.6
2022-08-18T03:07:49.239Z,32.2
2022-08-18T03:08:50.267Z,27.1
2022-08-18T03:09:50.577Z,29.4
2022-08-18T03:10:53.870Z,30.1
2022-08-18T03:11:51.229Z,32.9
2022-08-18T03:12:51.840Z,32.8
2022-08-18T03:13:52.872Z,26.6
2022-08-18T03:14:52.660Z,22.6
2022-08-18T03:15:56.708Z,30.1
2022-08-18T03:16:55.488Z,25
2022-08-18T03:17:54.850Z,27.8
2022-08-18T03:18:55.358Z,23.9
2022-08-18T03:19:55.982Z,16.3
2022-08-18T03:20:56.188Z,43.2
2022-08-18T03:21:58.850Z,89.3
2022-08-18T03:23:05.763Z,102.9
2022-08-18T03:24:09.297Z,98.9
2022-08-18T03:25:04.101Z,101.2
2022-08-18T03:26:03.699Z,85.6
2022-08-18T03:27:06.458Z,66.6
2022-08-18T03:28:05.251Z,52.9
2022-08-18T03:29:04.944Z,49.4
2022-08-18T03:30:11.451Z,63.8
2022-08-18T03:31:10.081Z,73.3
2022-08-18T03:32:09.779Z,62.4
2022-08-18T03:33:10.711Z,72.6
2022-08-18T03:34:10.499Z,84.7
2022-08-18T03:35:11.032Z,73.1
2022-08-18T03:37:15.849Z,86.6
2022-08-18T03:38:16.468Z,65.3
2022-08-18T03:39:18.632Z,64.4
2022-08-18T03:40:17.266Z,55.7
2022-08-18T03:41:44.479Z,80.2
2022-08-18T03:42:18.241Z,45.2
2022-08-18T03:43:49.600Z,50.1
2022-08-18T03:44:22.869Z,47.5
2022-08-18T03:45:21.540Z,44
2022-08-18T03:46:23.071Z,51.7
2022-08-18T03:47:22.346Z,39.8
2022-08-18T03:48:22.781Z,56.1
2022-08-18T03:49:23.281Z,51.2
2022-08-18T03:50:23.720Z,50.4
2022-08-18T03:52:27.008Z,104.1
2022-08-18T03:53:27.529Z,101.4
2022-08-18T03:54:30.210Z,71.9
2022-08-18T03:55:29.079Z,69.8
2022-08-18T03:56:33.281Z,71
2022-08-18T03:57:30.630Z,71.4
2022-08-18T03:58:32.685Z,55.6
2022-08-18T03:59:32.428Z,41.3
2022-08-18T04:00:33.527Z,41.8
2022-08-18T04:01:36.752Z,37.9
2022-08-18T04:02:34.260Z,33.4
2022-08-18T04:03:34.657Z,31
2022-08-18T04:04:35.376Z,29.2
2022-08-18T04:07:37.560Z,25.9
2022-08-18T04:08:38.081Z,25.1
2022-08-18T04:09:39.209Z,21.8
2022-08-18T04:10:39.621Z,23.3
2022-08-18T04:11:40.754Z,24.7
2022-08-18T04:12:41.999Z,25.6
2022-08-18T04:13:41.179Z,28.3
2022-08-18T04:14:42.619Z,28
2022-08-18T04:15:41.401Z,27.2
2022-08-18T04:16:42.320Z,35.3
2022-08-18T04:17:56.078Z,51.1
2022-08-18T04:18:44.800Z,33.6
2022-08-18T04:19:45.011Z,82.3
2022-08-18T04:20:59.064Z,69.9
2022-08-18T04:21:52.691Z,55.3
2022-08-18T04:22:50.245Z,62.5
2022-08-18T04:23:50.769Z,54.6
2022-08-18T04:24:51.692Z,55.2
2022-08-18T04:26:01.119Z,42.8
2022-08-18T04:26:53.860Z,49.4
2022-08-18T04:27:54.281Z,44.2
2022-08-18T04:28:55.280Z,39.7
2022-08-18T04:29:55.420Z,44.3
2022-08-18T04:30:55.726Z,33
2022-08-18T04:31:56.661Z,46.7
2022-08-18T04:32:56.714Z,49
2022-08-18T04:34:00.950Z,58.2
2022-08-18T04:34:58.524Z,38.9
2022-08-18T04:36:09.479Z,58.9
2022-08-18T04:37:03.039Z,50.6
2022-08-18T04:38:02.661Z,48.7
2022-08-18T04:39:04.901Z,55.8
2022-08-18T04:40:04.873Z,49.8
2022-08-18T04:41:04.256Z,56.4
2022-08-18T04:42:04.526Z,46.1
2022-08-18T04:43:04.927Z,39.1
2022-08-18T04:44:07.801Z,40
2022-08-18T04:45:06.668Z,45.5
2022-08-18T04:46:06.479Z,46.2
2022-08-18T04:47:07.504Z,43.5
2022-08-18T04:48:07.094Z,40.4
2022-08-18T04:49:08.647Z,39.8
2022-08-18T04:50:09.769Z,37.7
2022-08-18T04:52:34.539Z,50.5
2022-08-18T04:52:38.787Z,42.4
2022-08-18T04:53:14.919Z,40.5
2022-08-18T04:54:15.542Z,43.4
2022-08-18T04:55:15.651Z,46.5
2022-08-18T04:57:19.955Z,48
2022-08-18T04:58:19.962Z,35.1
2022-08-18T04:59:18.950Z,40.7
2022-08-18T05:00:19.687Z,41.4
2022-08-18T05:01:22.236Z,48.9
2022-08-18T05:02:21.312Z,35.9
2022-08-18T05:03:20.402Z,31.8
2022-08-18T05:04:20.838Z,42.7
2022-08-18T05:05:21.137Z,42.4
2022-08-18T05:06:22.998Z,37.2
2022-08-18T05:07:22.725Z,39.9
2022-08-18T05:08:22.393Z,38.2
2022-08-18T05:09:23.327Z,43.7
2022-08-18T05:10:23.216Z,43.6
2022-08-18T05:11:26.188Z,34.7
2022-08-18T05:12:26.407Z,44.9
2022-08-18T05:13:25.382Z,37.3
2022-08-18T05:14:25.499Z,36.9
2022-08-18T05:15:25.820Z,32
2022-08-18T05:16:28.042Z,39.9
2022-08-18T05:17:26.536Z,31.5
2022-08-18T05:18:27.670Z,45.4
2022-08-18T05:19:28.596Z,41.6
2022-08-18T05:20:28.720Z,34
2022-08-18T05:21:28.929Z,42.6
2022-08-18T05:22:31.137Z,37
2022-08-18T05:23:29.653Z,44.5
2022-08-18T05:24:37.304Z,32
2022-08-18T05:25:30.280Z,29.2
2022-08-18T05:26:30.590Z,37.8
2022-08-18T05:27:35.730Z,28.4
2022-08-18T05:28:33.066Z,33.5
2022-08-18T05:29:33.480Z,29.4
2022-08-18T05:30:33.993Z,39.7
2022-08-18T05:31:34.520Z,33.9
2022-08-18T05:32:48.085Z,33
2022-08-18T05:33:37.298Z,28.3
2022-08-18T05:34:37.510Z,26.1
2022-08-18T05:35:51.436Z,33.6
2022-08-18T05:42:59.170Z,30.9
2022-08-18T05:43:58.148Z,33.9
2022-08-18T05:44:57.948Z,29.4
2022-08-18T05:46:01.540Z,26.8
2022-08-18T05:48:02.891Z,33.9
2022-08-18T05:49:03.605Z,28.2
2022-08-18T05:52:15.864Z,24.2
2022-08-18T05:53:15.099Z,30
2022-08-18T05:54:15.206Z,30.8
2022-08-18T05:55:17.378Z,31
2022-08-18T05:56:20.250Z,30.3
2022-08-18T05:57:21.985Z,28.3
2022-08-18T05:58:33.539Z,19.9
2022-08-18T05:59:27.632Z,23.8
2022-08-18T06:00:25.651Z,24.8
2022-08-18T06:02:35.628Z,23.5
2022-08-18T06:03:45.288Z,20.6
2022-08-18T06:05:44.767Z,22.8
2022-08-18T06:06:47.478Z,20.8
2022-08-18T06:10:51.976Z,18.8
2022-08-18T06:12:59.467Z,24.4
2022-08-18T06:13:59.620Z,19
2022-08-18T06:16:14.029Z,27.8
2022-08-18T06:40:09.494Z,25.1
2022-08-18T06:42:11.340Z,19.2
2022-08-18T06:43:14.912Z,20.7
2022-08-18T06:44:19.936Z,21.4
2022-08-18T06:45:19.042Z,18.6
2022-08-18T06:46:25.796Z,15.5
2022-08-18T06:50:43.525Z,22.1
2022-08-18T06:51:31.564Z,15.2
2022-08-18T06:52:37.092Z,17.6
2022-08-18T06:54:49.375Z,35.7
2022-08-18T06:55:47.045Z,22.5
2022-08-18T06:56:53.606Z,15.2
2022-08-18T06:58:52.684Z,21.9
2022-08-18T06:59:59.257Z,17
2022-08-18T07:00:59.742Z,18
2022-08-18T07:03:58.572Z,14.3
2022-08-18T07:09:23.487Z,22.6
2022-08-18T07:12:23.296Z,23.5
2022-08-18T07:14:23.721Z,20.4
2022-08-18T07:15:25.879Z,17.4
2022-08-18T07:16:56.589Z,20
2022-08-18T07:17:43.185Z,25.4
2022-08-18T07:18:29.177Z,13.9
2022-08-18T07:19:30.518Z,17.9
2022-08-18T07:20:27.749Z,15.5
2022-08-18T07:21:30.939Z,18.7
2022-08-18T07:22:39.099Z,18.4
2022-08-18T07:23:38.736Z,24.4
2022-08-18T07:25:42.638Z,16.1
2022-08-18T07:27:50.648Z,14.5
2022-08-18T07:28:51.255Z,18.7
2022-08-18T07:31:13.628Z,18
2022-08-18T07:31:55.282Z,11.7
2022-08-18T07:35:02.369Z,25.3
2022-08-18T07:49:31.324Z,14.2
2022-08-18T07:50:58.485Z,14
2022-08-18T07:52:46.949Z,96.6
2022-08-18T08:08:29.604Z,17.4
2022-08-18T08:20:53.957Z,11.5
2022-08-18T08:30:23.708Z,12.8
2022-08-18T08:36:43.826Z,13.2
2022-08-18T08:37:51.876Z,17.7
2022-08-18T08:38:54.078Z,9.5
2022-08-18T08:39:58.878Z,9
2022-08-18T08:41:01.766Z,10.3
2022-08-18T08:42:29.113Z,10.1
2022-08-18T08:50:24.966Z,9.7
2022-08-18T08:59:49.808Z,11.3
2022-08-18T09:00:51.693Z,12.9
2022-08-18T09:24:55.920Z,7.8
2022-08-18T09:25:58.171Z,14.6
2022-08-18T09:29:00.855Z,8.9
2022-08-18T09:30:00.767Z,9.7
2022-08-18T09:37:26.413Z,8.9
2022-08-18T09:38:28.979Z,10.2
2022-08-18T09:39:34.779Z,5.8
2022-08-18T09:40:44.696Z,5.9
2022-08-18T09:48:47.934Z,9.8
2022-08-18T09:51:58.346Z,12.5
2022-08-18T09:55:08.296Z,8.5
2022-08-18T09:56:05.351Z,7.4
2022-08-18T09:59:10.792Z,5.8
2022-08-18T10:06:28.750Z,6.1
2022-08-18T10:22:10.628Z,10.2
2022-08-18T10:23:08.582Z,10.1
2022-08-18T10:25:22.813Z,12.1
2022-08-18T10:38:49.290Z,7.8
2022-08-18T10:44:15.545Z,7.5
2022-08-18T10:47:24.819Z,7.5
2022-08-18T10:48:26.661Z,7
2022-08-18T10:49:23.498Z,6.3
2022-08-18T10:50:22.594Z,7.7
2022-08-18T11:04:58.650Z,9.9
2022-08-18T11:09:01.489Z,7.2
2022-08-18T11:10:13.225Z,8.5
2022-08-18T11:12:05.235Z,9.8
2022-08-18T11:19:19.029Z,6.7
2022-08-18T11:20:19.815Z,6.8
2022-08-18T11:23:23.721Z,6.8
2022-08-18T11:26:33.061Z,5.7
2022-08-18T11:27:35.866Z,6.2
2022-08-18T11:28:35.940Z,7.9
2022-08-18T11:31:41.694Z,16
2022-08-18T11:32:51.844Z,34.1
2022-08-18T11:33:44.879Z,24.2
2022-08-18T11:35:57.193Z,8.2
2022-08-18T11:37:00.464Z,8.3
2022-08-18T11:38:01.406Z,8.8
2022-08-18T11:38:59.254Z,6.2
2022-08-18T11:40:02.049Z,5.3
2022-08-18T11:42:02.015Z,7
2022-08-18T11:44:13.116Z,11.4
2022-08-18T11:45:23.315Z,9.8
2022-08-18T11:49:30.447Z,6.6
2022-08-18T11:50:32.698Z,7.2
2022-08-18T11:51:31.491Z,9.3
2022-08-18T11:52:34.103Z,9.3
2022-08-18T11:55:37.147Z,5.7
2022-08-18T11:56:38.114Z,7.3
2022-08-18T11:58:45.765Z,8.2
2022-08-18T11:59:54.632Z,9.5
2022-08-18T12:01:01.548Z,4.7
2022-08-18T12:01:53.062Z,6.8
2022-08-18T12:03:02.377Z,7.5
2022-08-18T12:03:54.804Z,5.9
2022-08-18T12:05:00.138Z,7.9
2022-08-18T12:08:02.198Z,67.4
2022-08-18T12:13:26.509Z,10.5
2022-08-18T12:14:29.878Z,12
2022-08-18T12:15:43.885Z,26.5
2022-08-18T12:17:29.811Z,9.1
2022-08-18T12:18:29.933Z,9.9
2022-08-18T12:19:29.009Z,8.6
2022-08-18T12:20:29.121Z,13.2
2022-08-18T12:21:29.834Z,9.3
2022-08-18T12:22:31.385Z,7.7
2022-08-18T12:23:38.437Z,11.3
2022-08-18T12:24:36.492Z,7.2
2022-08-18T12:25:34.811Z,8.1
2022-08-18T12:26:38.776Z,8.2
2022-08-18T12:27:41.858Z,10.2
2022-08-18T12:28:41.964Z,8.1
2022-08-18T12:29:43.673Z,5.4
2022-08-18T12:30:42.760Z,10
2022-08-18T12:31:48.713Z,7.8
2022-08-18T12:32:50.816Z,6.7
2022-08-18T12:33:48.076Z,6.8
2022-08-18T12:34:47.126Z,6.9
2022-08-18T12:35:47.643Z,5.8
2022-08-18T12:36:47.959Z,6
2022-08-18T12:38:12.544Z,6.6
2022-08-18T12:39:53.446Z,6.7
2022-08-18T12:40:53.105Z,10.2
2022-08-18T12:41:53.416Z,7.3
2022-08-18T12:43:59.180Z,5.5
2022-08-18T12:44:57.123Z,6.6
2022-08-18T12:45:58.970Z,5.7
2022-08-18T12:46:59.746Z,9.8
2022-08-18T12:47:58.474Z,9.6
2022-08-18T12:48:58.589Z,7.8
2022-08-18T12:49:59.108Z,6.8
2022-08-18T12:50:59.760Z,5.8
2022-08-18T12:51:59.942Z,4.5
2022-08-18T12:53:01.168Z,7
2022-08-18T12:54:01.382Z,5
2022-08-18T12:55:03.147Z,4.9
2022-08-18T12:56:02.529Z,11.4
2022-08-18T12:58:04.379Z,5.3
2022-08-18T12:59:08.587Z,6.3
2022-08-18T13:00:07.161Z,7.3
2022-08-18T13:01:06.274Z,9.3
2022-08-18T13:02:06.964Z,5.8
2022-08-18T13:03:07.181Z,6.8
2022-08-18T13:04:12.393Z,6.9
2022-08-18T13:05:10.877Z,6.1
2022-08-18T13:06:12.421Z,12.3
2022-08-18T13:07:12.834Z,5.6
2022-08-18T13:09:16.637Z,8.2
2022-08-18T13:10:21.589Z,6.7
2022-08-18T13:11:23.745Z,6
2022-08-18T13:12:24.021Z,6.8
2022-08-18T13:13:25.005Z,5.8
2022-08-18T13:14:26.702Z,8.2
2022-08-18T13:15:27.223Z,6.2
2022-08-18T13:16:39.128Z,7.4
2022-08-18T13:17:33.594Z,5.9
2022-08-18T13:18:31.649Z,7
2022-08-18T13:19:33.230Z,4.3
2022-08-18T13:20:32.483Z,5.2
2022-08-18T13:21:40.831Z,20.6
2022-08-18T13:22:33.925Z,6.7
2022-08-18T13:23:34.544Z,12.2
2022-08-18T13:24:34.758Z,7.4
2022-08-18T13:25:39.791Z,7.9
2022-08-18T13:26:41.572Z,4.8
2022-08-18T13:27:43.530Z,7
2022-08-18T13:28:51.565Z,127
2022-08-18T13:29:44.824Z,14.2
2022-08-18T13:30:45.750Z,8.9
2022-08-18T13:31:55.996Z,5.9
2022-08-18T13:32:59.026Z,8.4
2022-08-18T13:33:59.358Z,9.9
2022-08-18T13:34:54.567Z,7.3
2022-08-18T13:35:54.996Z,6.9
2022-08-18T13:36:54.905Z,10.7
2022-08-18T13:37:54.914Z,5.7
2022-08-18T13:38:55.125Z,8.4
2022-08-18T13:39:55.712Z,6
2022-08-18T13:40:59.454Z,8
2022-08-18T13:41:57.042Z,11.2
2022-08-18T13:42:59.304Z,9.6
2022-08-18T13:43:58.748Z,6.8
2022-08-18T13:44:59.477Z,10.3
2022-08-18T13:46:02.947Z,5.9
2022-08-18T13:47:02.138Z,12.7
2022-08-18T13:48:02.909Z,6.6
2022-08-18T13:49:03.451Z,6.2
2022-08-18T13:50:04.688Z,6.4
2022-08-18T13:51:05.655Z,7.8
2022-08-18T13:52:12.160Z,5.5
2022-08-18T13:53:19.860Z,7.3
2022-08-18T13:54:30.926Z,8
2022-08-18T13:55:17.395Z,8.2
2022-08-18T13:56:15.004Z,9.1
2022-08-18T13:57:15.315Z,6.4
2022-08-18T13:58:17.537Z,6.1
2022-08-18T13:59:18.398Z,6.7
2022-08-18T14:00:30.341Z,7.6
2022-08-18T14:01:45.379Z,74
2022-08-18T14:02:26.809Z,9
2022-08-18T14:03:42.808Z,17.2
2022-08-18T14:04:28.472Z,7.9
2022-08-18T14:05:36.696Z,6.1
2022-08-18T14:06:31.353Z,6.7
2022-08-18T14:07:32.187Z,7.7
2022-08-18T14:08:32.599Z,7.5
2022-08-18T14:09:37.348Z,6.2
2022-08-18T14:10:36.390Z,8.6
2022-08-18T14:11:38.241Z,6.5
2022-08-18T14:12:39.786Z,6.1
2022-08-18T14:13:43.496Z,12.7
2022-08-18T14:14:41.338Z,6.1
2022-08-18T14:15:41.748Z,12.6
2022-08-18T14:16:42.348Z,9.2
2022-08-18T14:17:42.992Z,10.1
2022-08-18T14:18:42.901Z,6.7
2022-08-18T14:19:46.256Z,7.9
2022-08-18T14:20:48.331Z,4.6
2022-08-18T14:21:49.261Z,5.6
2022-08-18T14:22:51.958Z,7.6
2022-08-18T14:23:53.237Z,6.8
2022-08-18T14:24:51.846Z,31.9
2022-08-18T14:25:52.161Z,21.6
2022-08-18T14:26:52.677Z,7.6
2022-08-18T14:27:56.435Z,13.6
2022-08-18T14:28:54.447Z,13.4
2022-08-18T14:29:55.091Z,8.7
2022-08-18T14:30:56.304Z,15.1
2022-08-18T14:31:55.677Z,11.2
2022-08-18T14:32:59.620Z,10
2022-08-18T14:33:59.710Z,10.3
2022-08-18T14:35:33.339Z,8.4
2022-08-18T14:36:09.801Z,7.3
2022-08-18T14:37:09.979Z,10.1
2022-08-18T14:38:10.020Z,10.4
2022-08-18T14:39:09.964Z,8.8
2022-08-18T14:40:12.429Z,5.7
2022-08-18T14:41:13.129Z,12.7
2022-08-18T14:42:15.199Z,7.3
2022-08-18T14:43:14.596Z,7
2022-08-18T14:44:15.352Z,10
2022-08-18T14:45:17.510Z,5.7
2022-08-18T14:46:14.304Z,7.9
2022-08-18T14:47:24.179Z,8.4
2022-08-18T14:48:19.315Z,4.3
2022-08-18T14:49:17.277Z,8
2022-08-18T14:50:21.788Z,7
2022-08-18T14:51:27.171Z,9.1
2022-08-18T14:52:25.525Z,9.5
2022-08-18T14:53:29.177Z,8
2022-08-18T14:54:30.087Z,8.1
2022-08-18T14:55:28.476Z,6
2022-08-18T14:56:29.698Z,9.5
2022-08-18T14:57:30.637Z,9.7
2022-08-18T14:58:32.795Z,10.3
2022-08-18T14:59:34.405Z,6.4
2022-08-18T15:00:31.916Z,6.3
2022-08-18T15:01:34.902Z,7.1
2022-08-18T15:02:32.511Z,7.5
2022-08-18T15:03:33.849Z,8.5
2022-08-18T15:04:33.239Z,7.4
2022-08-18T15:05:35.808Z,7.7
2022-08-18T15:06:36.222Z,7
2022-08-18T15:07:37.253Z,6
2022-08-18T15:08:40.855Z,5.8
2022-08-18T15:09:41.360Z,12.6
2022-08-18T15:10:42.085Z,10.7
2022-08-18T15:11:41.988Z,9.4
2022-08-18T15:12:42.915Z,9.7
2022-08-18T15:13:43.232Z,6.4
2022-08-18T15:14:43.032Z,6.5
2022-08-18T15:15:51.787Z,7.5
2022-08-18T15:16:44.380Z,7
2022-08-18T15:17:44.797Z,7.2
2022-08-18T15:18:47.978Z,8.3
2022-08-18T15:20:00.556Z,10.8
2022-08-18T15:20:48.603Z,9.8
2022-08-18T15:21:49.018Z,7.1
2022-08-18T15:22:49.362Z,6.5
2022-08-18T15:23:49.761Z,6.8
2022-08-18T15:24:50.066Z,9.3
2022-08-18T15:25:50.995Z,6.3
2022-08-18T15:26:57.562Z,5.8
2022-08-18T15:27:52.336Z,5.7
2022-08-18T15:28:51.217Z,8.1
2022-08-18T15:29:51.532Z,7.7
2022-08-18T15:31:16.478Z,7.2
2022-08-18T15:31:59.279Z,5.4
2022-08-18T15:32:59.335Z,5.5
2022-08-18T15:34:01.094Z,6
2022-08-18T15:35:01.192Z,7.3
2022-08-18T15:36:04.883Z,11
2022-08-18T15:37:09.922Z,8.4
2022-08-18T15:38:08.278Z,7.4
2022-08-18T15:39:09.840Z,8.6
2022-08-18T15:40:30.170Z,16.4
2022-08-18T15:42:14.299Z,7.8
2022-08-18T15:43:17.961Z,105.6
2022-08-18T15:44:20.814Z,168.2
2022-08-18T15:45:20.929Z,105.4
2022-08-18T15:46:19.193Z,26.2
2022-08-18T15:47:21.002Z,9.8
2022-08-18T15:48:22.476Z,9.9
2022-08-18T15:49:21.771Z,6.6
2022-08-18T15:50:25.807Z,6.1
2022-08-18T15:51:24.036Z,7.9
2022-08-18T15:52:24.184Z,8.3
2022-08-18T15:53:29.991Z,6.9
2022-08-18T15:54:27.744Z,8.1
2022-08-18T15:55:35.787Z,7.2
2022-08-18T15:56:29.508Z,7.9
2022-08-18T15:57:39.438Z,7
2022-08-18T15:58:32.784Z,7.2
2022-08-18T15:59:39.741Z,6.7
2022-08-18T16:00:39.764Z,6.3
2022-08-18T16:01:42.270Z,4.2
2022-08-18T16:02:48.390Z,7
2022-08-18T16:03:41.120Z,8.4
2022-08-18T16:04:44.898Z,8.9
2022-08-18T16:05:52.954Z,7.3
2022-08-18T16:06:45.847Z,5.7
2022-08-18T16:07:45.964Z,5.5
2022-08-18T16:08:46.376Z,9.8
2022-08-18T16:09:46.687Z,8.8
2022-08-18T16:10:47.408Z,6.8
2022-08-18T16:11:47.529Z,6.7
2022-08-18T16:12:48.346Z,6.5
2022-08-18T16:13:49.482Z,14.6
2022-08-18T16:14:48.768Z,10.7
2022-08-18T16:15:49.295Z,11.6
2022-08-18T16:16:49.505Z,7.6
2022-08-18T16:17:51.637Z,6.5
2022-08-18T16:18:50.701Z,10.2
2022-08-18T16:19:50.753Z,12.8
2022-08-18T16:20:52.769Z,24.8
2022-08-18T16:21:55.581Z,17.6
2022-08-18T16:22:54.353Z,8.2
2022-08-18T16:23:54.694Z,8.2
2022-08-18T16:24:55.696Z,6.7
2022-08-18T16:26:01.231Z,13.4
2022-08-18T16:26:58.577Z,16.4
2022-08-18T16:28:00.220Z,21.9
2022-08-18T16:29:01.758Z,15.7
2022-08-18T16:30:00.044Z,15.9
2022-08-18T16:31:00.657Z,11.7
2022-08-18T16:32:00.350Z,7.5
2022-08-18T16:33:02.715Z,10.5
2022-08-18T16:34:02.588Z,6.3
2022-08-18T16:35:01.912Z,6.5
2022-08-18T16:36:06.725Z,8.7
2022-08-18T16:37:04.329Z,6.4
2022-08-18T16:38:09.077Z,10.6
2022-08-18T16:39:06.540Z,8.3
2022-08-18T16:40:08.258Z,8.1
2022-08-18T16:41:14.070Z,6.5
2022-08-18T16:42:11.582Z,6.2
2022-08-18T16:43:11.997Z,7.5
2022-08-18T16:44:12.422Z,9.1
2022-08-18T16:45:13.322Z,7.1
2022-08-18T16:46:17.034Z,7.5
2022-08-18T16:47:16.838Z,6.9
2022-08-18T16:48:17.002Z,6.2
2022-08-18T16:49:15.953Z,10
2022-08-18T16:50:17.057Z,11
2022-08-18T16:51:19.837Z,38
2022-08-18T16:52:18.225Z,23.4
2022-08-18T16:53:18.207Z,31.5
2022-08-18T16:54:17.910Z,17.4
2022-08-18T16:55:18.223Z,24.8
2022-08-18T16:56:25.105Z,21.4
2022-08-18T16:57:22.645Z,26
2022-08-18T16:58:24.799Z,18.7
2022-08-18T16:59:25.375Z,12.6
2022-08-18T17:00:26.041Z,16.6
2022-08-18T17:01:26.309Z,13.9
2022-08-18T17:02:26.277Z,13.3
2022-08-18T17:03:26.368Z,12.7
2022-08-18T17:04:29.134Z,11.4
2022-08-18T17:05:27.095Z,9.9
2022-08-18T17:06:27.627Z,11.6
2022-08-18T17:07:31.840Z,9.5
2022-08-18T17:08:30.117Z,8.2
2022-08-18T17:09:29.783Z,8.5
2022-08-18T17:11:30.522Z,8
2022-08-18T17:12:31.359Z,9.4
2022-08-18T17:13:31.761Z,13.1
2022-08-18T17:14:32.272Z,8.5
2022-08-18T17:15:32.380Z,12.2
2022-08-18T17:16:35.368Z,9
2022-08-18T17:17:33.726Z,8.8
2022-08-18T17:18:34.083Z,8.8
2022-08-18T17:19:34.760Z,11.1
2022-08-18T17:20:35.707Z,7.8
2022-08-18T17:21:36.113Z,8.8
2022-08-18T17:22:34.280Z,9
2022-08-18T17:23:38.842Z,8.8
2022-08-18T17:24:36.859Z,9.1
2022-08-18T17:25:37.181Z,9.6
2022-08-18T17:27:43.323Z,9.8
2022-08-18T17:30:51.841Z,12.6
2022-08-18T17:31:57.901Z,9.9
2022-08-18T17:34:01.193Z,7.5
2022-08-18T17:35:06.302Z,6.9
2022-08-18T17:36:08.669Z,6.5
2022-08-18T17:37:10.819Z,12
2022-08-18T17:39:16.708Z,7.7
2022-08-18T17:41:17.814Z,10.3
2022-08-18T17:42:15.159Z,11.3
2022-08-18T17:43:18.445Z,8.7
2022-08-18T17:44:16.105Z,11.7
2022-08-18T17:45:21.717Z,9.3
2022-08-18T17:46:22.854Z,9
2022-08-18T17:47:30.337Z,11.3
2022-08-18T17:48:28.506Z,15.7
2022-08-18T17:53:35.397Z,19.9
2022-08-18T17:54:41.861Z,14.9
2022-08-18T18:00:52.236Z,17.4
2022-08-18T18:02:57.984Z,32.1
2022-08-18T18:03:58.091Z,45.5
2022-08-18T18:05:00.454Z,49.2
2022-08-18T18:07:02.415Z,62.4
2022-08-18T18:08:04.160Z,62.1
2022-08-18T18:10:11.352Z,31.2
2022-08-18T18:11:12.277Z,55.4
2022-08-18T18:13:21.501Z,156.7
2022-08-18T18:16:29.824Z,79.3
2022-08-18T18:17:33.202Z,164.3
2022-08-18T18:19:26.252Z,98.9
2022-08-18T18:21:57.570Z,48.5
2022-08-18T18:22:31.680Z,41.1
2022-08-18T18:24:36.626Z,32.6
2022-08-18T18:27:43.821Z,24.6
2022-08-18T18:28:40.849Z,25.8
2022-08-18T18:29:41.372Z,17.1
2022-08-18T18:30:42.002Z,69.1
2022-08-18T18:31:47.331Z,50.2
2022-08-18T18:35:54.880Z,19.7
2022-08-18T18:36:52.791Z,22.2
2022-08-18T18:39:59.946Z,38.4
2022-08-18T18:44:12.190Z,73
2022-08-18T18:45:22.839Z,80.4
2022-08-18T18:55:40.740Z,135
2022-08-18T18:56:45.340Z,137.6
2022-08-18T19:00:54.078Z,97.6
2022-08-18T19:10:25.670Z,57.3
2022-08-18T19:13:32.981Z,58.5
2022-08-18T19:15:33.376Z,62.5
2022-08-18T19:16:45.265Z,61.7
2022-08-18T19:22:02.319Z,59.8
2022-08-18T19:22:04.740Z,47.4
2022-08-18T19:26:01.719Z,64.2
2022-08-18T19:27:04.787Z,49.4
2022-08-18T19:29:16.687Z,52.4
2022-08-18T19:30:14.340Z,59
2022-08-18T19:46:54.585Z,82.9
2022-08-18T20:13:56.700Z,69.9
2022-08-18T20:27:35.210Z,56.9
2022-08-18T20:28:39.905Z,59.2
2022-08-18T20:32:43.617Z,63.7
2022-08-18T20:36:53.472Z,64.7
2022-08-18T20:37:52.358Z,46.7
2022-08-18T20:38:54.610Z,52.8
2022-08-18T20:39:54.762Z,48.4
2022-08-18T20:40:53.402Z,53.5
2022-08-18T20:41:53.817Z,44.3
2022-08-18T20:43:06.599Z,62.9
2022-08-18T20:51:23.468Z,57.8
2022-08-18T20:57:37.122Z,44.3